sensor_id;sensor_type;location;lat;lon;timestamp;P1;durP1;ratioP1;P2;durP2;ratioP2
6434;SDS011;3250;42.694;23.278;2023-07-29T00:00:25;10.13;;;4.35;;
6434;SDS011;3250;42.694;23.278;2023-07-29T00:02:53;11.38;;;5.15;;
6434;SDS011;3250;42.694;23.278;2023-07-29T00:05:18;7.78;;;4.32;;
6434;SDS011;3250;42.694;23.278;2023-07-29T00:07:43;12.57;;;4.43;;
6434;SDS011;3250;42.694;23.278;2023-07-29T00:10:09;7.35;;;3.88;;
6434;SDS011;3250;42.694;23.278;2023-07-29T00:12:34;8.27;;;4.40;;
6434;SDS011;3250;42.694;23.278;2023-07-29T00:15:00;10.75;;;4.80;;
6434;SDS011;3250;42.694;23.278;2023-07-29T00:17:25;10.80;;;4.63;;
6434;SDS011;3250;42.694;23.278;2023-07-29T00:19:51;12.50;;;4.47;;
6434;SDS011;3250;42.694;23.278;2023-07-29T00:22:16;7.60;;;3.90;;
6434;SDS011;3250;42.694;23.278;2023-07-29T00:24:42;8.68;;;3.88;;
6434;SDS011;3250;42.694;23.278;2023-07-29T00:27:07;8.25;;;3.63;;
6434;SDS011;3250;42.694;23.278;2023-07-29T00:29:32;6.05;;;4.03;;
6434;SDS011;3250;42.694;23.278;2023-07-29T00:31:58;7.93;;;3.70;;
6434;SDS011;3250;42.694;23.278;2023-07-29T00:34:24;13.48;;;4.22;;
6434;SDS011;3250;42.694;23.278;2023-07-29T00:36:49;7.88;;;4.18;;
6434;SDS011;3250;42.694;23.278;2023-07-29T00:39:14;8.35;;;3.95;;
6434;SDS011;3250;42.694;23.278;2023-07-29T00:41:40;5.50;;;3.45;;
6434;SDS011;3250;42.694;23.278;2023-07-29T00:44:05;6.88;;;3.90;;
6434;SDS011;3250;42.694;23.278;2023-07-29T00:46:32;7.57;;;3.80;;
6434;SDS011;3250;42.694;23.278;2023-07-29T00:48:59;7.45;;;3.50;;
6434;SDS011;3250;42.694;23.278;2023-07-29T00:51:25;7.25;;;3.50;;
6434;SDS011;3250;42.694;23.278;2023-07-29T00:53:50;12.60;;;3.63;;
6434;SDS011;3250;42.694;23.278;2023-07-29T00:56:16;14.13;;;4.22;;
6434;SDS011;3250;42.694;23.278;2023-07-29T00:58:42;7.63;;;4.28;;
6434;SDS011;3250;42.694;23.278;2023-07-29T01:01:07;14.57;;;4.18;;
6434;SDS011;3250;42.694;23.278;2023-07-29T01:03:33;13.05;;;4.25;;
6434;SDS011;3250;42.694;23.278;2023-07-29T01:06:13;16.38;;;4.22;;
6434;SDS011;3250;42.694;23.278;2023-07-29T01:08:55;10.85;;;5.20;;
6434;SDS011;3250;42.694;23.278;2023-07-29T01:11:33;14.30;;;4.90;;
6434;SDS011;3250;42.694;23.278;2023-07-29T01:14:47;22.67;;;12.85;;
6434;SDS011;3250;42.694;23.278;2023-07-29T01:17:27;42.25;;;21.70;;
6434;SDS011;3250;42.694;23.278;2023-07-29T01:22:32;10.98;;;7.20;;
6434;SDS011;3250;42.694;23.278;2023-07-29T01:24:59;15.35;;;6.70;;
6434;SDS011;3250;42.694;23.278;2023-07-29T01:27:25;8.93;;;5.85;;
6434;SDS011;3250;42.694;23.278;2023-07-29T01:29:51;12.32;;;6.78;;
6434;SDS011;3250;42.694;23.278;2023-07-29T01:32:40;10.60;;;6.22;;
6434;SDS011;3250;42.694;23.278;2023-07-29T01:35:18;9.80;;;5.00;;
6434;SDS011;3250;42.694;23.278;2023-07-29T01:37:45;8.52;;;4.47;;
6434;SDS011;3250;42.694;23.278;2023-07-29T01:40:14;7.50;;;4.00;;
6434;SDS011;3250;42.694;23.278;2023-07-29T01:42:40;7.60;;;4.20;;
6434;SDS011;3250;42.694;23.278;2023-07-29T01:45:06;9.80;;;4.57;;
6434;SDS011;3250;42.694;23.278;2023-07-29T01:47:32;5.93;;;4.40;;
6434;SDS011;3250;42.694;23.278;2023-07-29T01:49:57;10.70;;;4.30;;
6434;SDS011;3250;42.694;23.278;2023-07-29T01:52:22;12.45;;;4.57;;
6434;SDS011;3250;42.694;23.278;2023-07-29T01:54:48;14.77;;;5.38;;
6434;SDS011;3250;42.694;23.278;2023-07-29T01:57:13;12.25;;;4.47;;
6434;SDS011;3250;42.694;23.278;2023-07-29T01:59:39;5.85;;;3.67;;
6434;SDS011;3250;42.694;23.278;2023-07-29T02:02:04;5.88;;;3.70;;
6434;SDS011;3250;42.694;23.278;2023-07-29T02:04:30;9.05;;;3.85;;
6434;SDS011;3250;42.694;23.278;2023-07-29T02:06:55;4.60;;;3.58;;
6434;SDS011;3250;42.694;23.278;2023-07-29T02:09:20;5.50;;;3.45;;
6434;SDS011;3250;42.694;23.278;2023-07-29T02:11:46;7.35;;;3.85;;
6434;SDS011;3250;42.694;23.278;2023-07-29T02:14:11;7.05;;;4.35;;
6434;SDS011;3250;42.694;23.278;2023-07-29T02:16:37;30.15;;;16.35;;
6434;SDS011;3250;42.694;23.278;2023-07-29T02:19:03;22.95;;;10.82;;
6434;SDS011;3250;42.694;23.278;2023-07-29T02:21:29;14.65;;;9.82;;
6434;SDS011;3250;42.694;23.278;2023-07-29T02:23:54;11.43;;;6.80;;
6434;SDS011;3250;42.694;23.278;2023-07-29T02:26:20;8.75;;;5.10;;
6434;SDS011;3250;42.694;23.278;2023-07-29T02:28:45;21.08;;;9.23;;
6434;SDS011;3250;42.694;23.278;2023-07-29T02:31:17;20.60;;;13.10;;
6434;SDS011;3250;42.694;23.278;2023-07-29T02:33:46;27.17;;;13.40;;
6434;SDS011;3250;42.694;23.278;2023-07-29T02:36:12;26.77;;;11.57;;
6434;SDS011;3250;42.694;23.278;2023-07-29T02:38:38;19.55;;;9.98;;
6434;SDS011;3250;42.694;23.278;2023-07-29T02:41:04;14.68;;;9.43;;
6434;SDS011;3250;42.694;23.278;2023-07-29T02:43:29;15.88;;;7.38;;
6434;SDS011;3250;42.694;23.278;2023-07-29T02:45:55;8.45;;;5.35;;
6434;SDS011;3250;42.694;23.278;2023-07-29T02:48:20;11.37;;;6.60;;
6434;SDS011;3250;42.694;23.278;2023-07-29T02:50:45;10.50;;;5.72;;
6434;SDS011;3250;42.694;23.278;2023-07-29T02:53:11;8.57;;;4.70;;
6434;SDS011;3250;42.694;23.278;2023-07-29T02:55:39;8.00;;;4.43;;
6434;SDS011;3250;42.694;23.278;2023-07-29T02:58:05;10.52;;;4.82;;
6434;SDS011;3250;42.694;23.278;2023-07-29T03:00:31;4.60;;;3.35;;
6434;SDS011;3250;42.694;23.278;2023-07-29T03:02:58;6.18;;;4.07;;
6434;SDS011;3250;42.694;23.278;2023-07-29T03:05:23;9.07;;;3.30;;
6434;SDS011;3250;42.694;23.278;2023-07-29T03:07:49;7.57;;;4.20;;
6434;SDS011;3250;42.694;23.278;2023-07-29T03:10:14;7.90;;;3.38;;
6434;SDS011;3250;42.694;23.278;2023-07-29T03:12:40;8.00;;;3.63;;
6434;SDS011;3250;42.694;23.278;2023-07-29T03:15:05;5.75;;;3.58;;
6434;SDS011;3250;42.694;23.278;2023-07-29T03:17:31;9.55;;;3.20;;
6434;SDS011;3250;42.694;23.278;2023-07-29T03:19:57;6.57;;;3.38;;
6434;SDS011;3250;42.694;23.278;2023-07-29T03:22:22;7.15;;;3.15;;
6434;SDS011;3250;42.694;23.278;2023-07-29T03:24:47;3.88;;;3.00;;
6434;SDS011;3250;42.694;23.278;2023-07-29T03:27:13;4.60;;;2.72;;
6434;SDS011;3250;42.694;23.278;2023-07-29T03:29:40;7.00;;;2.88;;
6434;SDS011;3250;42.694;23.278;2023-07-29T03:32:06;3.60;;;2.80;;
6434;SDS011;3250;42.694;23.278;2023-07-29T03:34:32;7.60;;;3.20;;
6434;SDS011;3250;42.694;23.278;2023-07-29T03:36:57;8.38;;;4.88;;
6434;SDS011;3250;42.694;23.278;2023-07-29T03:39:23;20.65;;;10.65;;
6434;SDS011;3250;42.694;23.278;2023-07-29T03:41:49;18.10;;;9.57;;
6434;SDS011;3250;42.694;23.278;2023-07-29T03:44:14;17.25;;;9.23;;
6434;SDS011;3250;42.694;23.278;2023-07-29T03:46:40;11.50;;;5.85;;
6434;SDS011;3250;42.694;23.278;2023-07-29T03:49:05;12.18;;;6.32;;
6434;SDS011;3250;42.694;23.278;2023-07-29T03:51:30;11.93;;;5.85;;
6434;SDS011;3250;42.694;23.278;2023-07-29T03:53:56;14.18;;;8.63;;
6434;SDS011;3250;42.694;23.278;2023-07-29T03:56:21;24.38;;;14.65;;
6434;SDS011;3250;42.694;23.278;2023-07-29T03:58:47;8.48;;;5.85;;
6434;SDS011;3250;42.694;23.278;2023-07-29T04:01:15;12.15;;;8.95;;
6434;SDS011;3250;42.694;23.278;2023-07-29T04:03:40;23.90;;;11.77;;
6434;SDS011;3250;42.694;23.278;2023-07-29T04:06:06;15.63;;;9.90;;
6434;SDS011;3250;42.694;23.278;2023-07-29T04:08:32;16.42;;;7.65;;
6434;SDS011;3250;42.694;23.278;2023-07-29T04:10:58;13.98;;;8.13;;
6434;SDS011;3250;42.694;23.278;2023-07-29T04:13:23;22.63;;;11.88;;
6434;SDS011;3250;42.694;23.278;2023-07-29T04:15:48;8.25;;;4.65;;
6434;SDS011;3250;42.694;23.278;2023-07-29T04:18:14;14.32;;;5.97;;
6434;SDS011;3250;42.694;23.278;2023-07-29T04:20:39;8.63;;;3.70;;
6434;SDS011;3250;42.694;23.278;2023-07-29T04:23:05;5.18;;;3.20;;
6434;SDS011;3250;42.694;23.278;2023-07-29T04:25:30;7.53;;;3.55;;
6434;SDS011;3250;42.694;23.278;2023-07-29T04:27:55;4.13;;;3.15;;
6434;SDS011;3250;42.694;23.278;2023-07-29T04:30:22;7.97;;;3.22;;
6434;SDS011;3250;42.694;23.278;2023-07-29T04:32:48;16.63;;;3.72;;
6434;SDS011;3250;42.694;23.278;2023-07-29T04:35:13;10.10;;;3.78;;
6434;SDS011;3250;42.694;23.278;2023-07-29T04:37:39;10.85;;;4.18;;
6434;SDS011;3250;42.694;23.278;2023-07-29T04:40:06;5.45;;;3.63;;
6434;SDS011;3250;42.694;23.278;2023-07-29T04:42:31;7.03;;;3.70;;
6434;SDS011;3250;42.694;23.278;2023-07-29T04:44:57;17.25;;;3.95;;
6434;SDS011;3250;42.694;23.278;2023-07-29T04:47:22;7.20;;;3.83;;
6434;SDS011;3250;42.694;23.278;2023-07-29T04:49:48;15.43;;;6.35;;
6434;SDS011;3250;42.694;23.278;2023-07-29T04:52:13;7.35;;;3.72;;
6434;SDS011;3250;42.694;23.278;2023-07-29T04:54:40;6.47;;;3.80;;
6434;SDS011;3250;42.694;23.278;2023-07-29T04:57:05;12.23;;;3.67;;
6434;SDS011;3250;42.694;23.278;2023-07-29T04:59:31;9.52;;;5.45;;
6434;SDS011;3250;42.694;23.278;2023-07-29T05:01:57;8.50;;;5.45;;
6434;SDS011;3250;42.694;23.278;2023-07-29T05:04:22;9.10;;;4.45;;
6434;SDS011;3250;42.694;23.278;2023-07-29T05:06:48;8.27;;;4.97;;
6434;SDS011;3250;42.694;23.278;2023-07-29T05:09:14;13.30;;;7.82;;
6434;SDS011;3250;42.694;23.278;2023-07-29T05:11:41;16.92;;;8.95;;
6434;SDS011;3250;42.694;23.278;2023-07-29T05:14:08;10.85;;;5.65;;
6434;SDS011;3250;42.694;23.278;2023-07-29T05:16:34;10.57;;;6.00;;
6434;SDS011;3250;42.694;23.278;2023-07-29T05:19:00;14.18;;;8.93;;
6434;SDS011;3250;42.694;23.278;2023-07-29T05:21:25;7.60;;;5.05;;
6434;SDS011;3250;42.694;23.278;2023-07-29T05:23:50;8.88;;;4.10;;
6434;SDS011;3250;42.694;23.278;2023-07-29T05:26:16;9.55;;;7.18;;
6434;SDS011;3250;42.694;23.278;2023-07-29T05:28:41;10.07;;;6.75;;
6434;SDS011;3250;42.694;23.278;2023-07-29T05:31:07;19.92;;;6.68;;
6434;SDS011;3250;42.694;23.278;2023-07-29T05:33:32;7.90;;;4.78;;
6434;SDS011;3250;42.694;23.278;2023-07-29T05:35:57;15.73;;;4.78;;
6434;SDS011;3250;42.694;23.278;2023-07-29T05:38:23;11.15;;;6.13;;
6434;SDS011;3250;42.694;23.278;2023-07-29T05:40:48;11.18;;;5.22;;
6434;SDS011;3250;42.694;23.278;2023-07-29T05:43:14;5.38;;;4.03;;
6434;SDS011;3250;42.694;23.278;2023-07-29T05:45:39;6.10;;;4.20;;
6434;SDS011;3250;42.694;23.278;2023-07-29T05:48:05;12.23;;;4.47;;
6434;SDS011;3250;42.694;23.278;2023-07-29T05:50:30;7.32;;;4.40;;
6434;SDS011;3250;42.694;23.278;2023-07-29T05:52:56;6.60;;;5.22;;
6434;SDS011;3250;42.694;23.278;2023-07-29T05:55:21;12.63;;;4.22;;
6434;SDS011;3250;42.694;23.278;2023-07-29T05:57:47;7.95;;;4.97;;
6434;SDS011;3250;42.694;23.278;2023-07-29T06:00:12;8.60;;;4.20;;
6434;SDS011;3250;42.694;23.278;2023-07-29T06:02:37;5.93;;;3.78;;
6434;SDS011;3250;42.694;23.278;2023-07-29T06:05:04;14.50;;;7.00;;
6434;SDS011;3250;42.694;23.278;2023-07-29T06:07:30;16.00;;;9.77;;
6434;SDS011;3250;42.694;23.278;2023-07-29T06:09:57;8.88;;;5.22;;
6434;SDS011;3250;42.694;23.278;2023-07-29T06:12:23;13.50;;;6.60;;
6434;SDS011;3250;42.694;23.278;2023-07-29T06:14:48;7.00;;;4.78;;
6434;SDS011;3250;42.694;23.278;2023-07-29T06:17:13;6.50;;;5.10;;
6434;SDS011;3250;42.694;23.278;2023-07-29T06:19:39;7.53;;;4.53;;
6434;SDS011;3250;42.694;23.278;2023-07-29T06:22:04;5.82;;;4.85;;
6434;SDS011;3250;42.694;23.278;2023-07-29T06:24:30;7.20;;;4.30;;
6434;SDS011;3250;42.694;23.278;2023-07-29T06:26:56;9.43;;;4.47;;
6434;SDS011;3250;42.694;23.278;2023-07-29T06:29:21;7.22;;;4.22;;
6434;SDS011;3250;42.694;23.278;2023-07-29T06:31:47;5.85;;;3.92;;
6434;SDS011;3250;42.694;23.278;2023-07-29T06:34:12;9.07;;;4.50;;
6434;SDS011;3250;42.694;23.278;2023-07-29T06:36:37;8.48;;;4.47;;
6434;SDS011;3250;42.694;23.278;2023-07-29T06:39:03;4.72;;;4.20;;
6434;SDS011;3250;42.694;23.278;2023-07-29T06:41:28;5.22;;;3.28;;
6434;SDS011;3250;42.694;23.278;2023-07-29T06:43:54;4.97;;;3.78;;
6434;SDS011;3250;42.694;23.278;2023-07-29T06:46:19;6.57;;;3.10;;
6434;SDS011;3250;42.694;23.278;2023-07-29T06:48:44;7.30;;;4.20;;
6434;SDS011;3250;42.694;23.278;2023-07-29T06:51:10;9.70;;;4.18;;
6434;SDS011;3250;42.694;23.278;2023-07-29T06:53:35;5.50;;;3.17;;
6434;SDS011;3250;42.694;23.278;2023-07-29T06:56:00;6.35;;;3.45;;
6434;SDS011;3250;42.694;23.278;2023-07-29T06:58:26;5.97;;;3.50;;
6434;SDS011;3250;42.694;23.278;2023-07-29T07:00:52;4.75;;;3.88;;
6434;SDS011;3250;42.694;23.278;2023-07-29T07:03:17;5.35;;;3.25;;
6434;SDS011;3250;42.694;23.278;2023-07-29T07:05:43;5.38;;;3.65;;
6434;SDS011;3250;42.694;23.278;2023-07-29T07:08:08;3.80;;;3.45;;
6434;SDS011;3250;42.694;23.278;2023-07-29T07:10:34;3.95;;;3.03;;
6434;SDS011;3250;42.694;23.278;2023-07-29T07:12:59;4.30;;;3.30;;
6434;SDS011;3250;42.694;23.278;2023-07-29T07:15:25;6.82;;;3.50;;
6434;SDS011;3250;42.694;23.278;2023-07-29T07:17:50;6.32;;;3.45;;
6434;SDS011;3250;42.694;23.278;2023-07-29T07:20:16;5.18;;;3.10;;
6434;SDS011;3250;42.694;23.278;2023-07-29T07:22:42;5.07;;;3.17;;
6434;SDS011;3250;42.694;23.278;2023-07-29T07:25:07;5.78;;;3.10;;
6434;SDS011;3250;42.694;23.278;2023-07-29T07:27:33;4.10;;;3.28;;
6434;SDS011;3250;42.694;23.278;2023-07-29T07:29:58;8.15;;;3.67;;
6434;SDS011;3250;42.694;23.278;2023-07-29T07:32:24;4.65;;;3.15;;
6434;SDS011;3250;42.694;23.278;2023-07-29T07:34:49;5.57;;;3.47;;
6434;SDS011;3250;42.694;23.278;2023-07-29T07:37:15;5.45;;;3.20;;
6434;SDS011;3250;42.694;23.278;2023-07-29T07:39:40;4.25;;;3.10;;
6434;SDS011;3250;42.694;23.278;2023-07-29T07:42:06;7.43;;;3.42;;
6434;SDS011;3250;42.694;23.278;2023-07-29T07:44:31;7.65;;;3.15;;
6434;SDS011;3250;42.694;23.278;2023-07-29T07:46:57;7.93;;;3.92;;
6434;SDS011;3250;42.694;23.278;2023-07-29T07:49:22;5.78;;;2.83;;
6434;SDS011;3250;42.694;23.278;2023-07-29T07:51:48;5.03;;;3.25;;
6434;SDS011;3250;42.694;23.278;2023-07-29T07:54:13;7.80;;;3.78;;
6434;SDS011;3250;42.694;23.278;2023-07-29T07:56:38;4.93;;;2.70;;
6434;SDS011;3250;42.694;23.278;2023-07-29T07:59:04;5.55;;;3.00;;
6434;SDS011;3250;42.694;23.278;2023-07-29T08:01:36;4.80;;;3.10;;
6434;SDS011;3250;42.694;23.278;2023-07-29T08:04:02;5.68;;;3.50;;
6434;SDS011;3250;42.694;23.278;2023-07-29T08:06:28;6.15;;;3.42;;
6434;SDS011;3250;42.694;23.278;2023-07-29T08:08:54;4.68;;;3.13;;
6434;SDS011;3250;42.694;23.278;2023-07-29T08:11:19;3.80;;;2.90;;
6434;SDS011;3250;42.694;23.278;2023-07-29T08:13:45;4.85;;;2.72;;
6434;SDS011;3250;42.694;23.278;2023-07-29T08:16:10;9.57;;;3.28;;
6434;SDS011;3250;42.694;23.278;2023-07-29T08:18:40;8.50;;;3.67;;
6434;SDS011;3250;42.694;23.278;2023-07-29T08:21:06;5.75;;;3.90;;
6434;SDS011;3250;42.694;23.278;2023-07-29T08:23:33;7.03;;;3.05;;
6434;SDS011;3250;42.694;23.278;2023-07-29T08:26:00;5.95;;;3.58;;
6434;SDS011;3250;42.694;23.278;2023-07-29T08:28:31;3.53;;;2.95;;
6434;SDS011;3250;42.694;23.278;2023-07-29T08:31:00;7.00;;;2.90;;
6434;SDS011;3250;42.694;23.278;2023-07-29T08:33:26;3.80;;;3.03;;
6434;SDS011;3250;42.694;23.278;2023-07-29T08:35:52;8.57;;;3.38;;
6434;SDS011;3250;42.694;23.278;2023-07-29T08:38:18;6.28;;;2.78;;
6434;SDS011;3250;42.694;23.278;2023-07-29T08:40:54;5.32;;;2.88;;
6434;SDS011;3250;42.694;23.278;2023-07-29T08:43:29;5.75;;;3.03;;
6434;SDS011;3250;42.694;23.278;2023-07-29T08:45:57;5.47;;;2.67;;
6434;SDS011;3250;42.694;23.278;2023-07-29T08:48:28;4.07;;;2.63;;
6434;SDS011;3250;42.694;23.278;2023-07-29T08:50:57;7.55;;;3.08;;
6434;SDS011;3250;42.694;23.278;2023-07-29T08:53:26;4.45;;;2.70;;
6434;SDS011;3250;42.694;23.278;2023-07-29T08:55:53;10.40;;;3.63;;
6434;SDS011;3250;42.694;23.278;2023-07-29T08:58:20;3.13;;;2.30;;
6434;SDS011;3250;42.694;23.278;2023-07-29T09:00:46;6.63;;;2.25;;
6434;SDS011;3250;42.694;23.278;2023-07-29T09:03:12;5.82;;;2.00;;
6434;SDS011;3250;42.694;23.278;2023-07-29T09:05:38;3.65;;;1.70;;
6434;SDS011;3250;42.694;23.278;2023-07-29T09:08:03;9.43;;;2.40;;
6434;SDS011;3250;42.694;23.278;2023-07-29T09:10:29;5.15;;;2.25;;
6434;SDS011;3250;42.694;23.278;2023-07-29T09:12:55;3.53;;;1.90;;
6434;SDS011;3250;42.694;23.278;2023-07-29T09:15:31;2.55;;;1.88;;
6434;SDS011;3250;42.694;23.278;2023-07-29T09:17:58;5.03;;;2.35;;
6434;SDS011;3250;42.694;23.278;2023-07-29T09:20:27;2.60;;;2.33;;
6434;SDS011;3250;42.694;23.278;2023-07-29T09:22:57;3.13;;;1.85;;
6434;SDS011;3250;42.694;23.278;2023-07-29T09:25:27;2.38;;;1.60;;
6434;SDS011;3250;42.694;23.278;2023-07-29T09:28:00;3.95;;;1.98;;
6434;SDS011;3250;42.694;23.278;2023-07-29T09:30:27;3.97;;;2.03;;
6434;SDS011;3250;42.694;23.278;2023-07-29T09:32:55;4.63;;;1.60;;
6434;SDS011;3250;42.694;23.278;2023-07-29T09:35:22;9.48;;;3.55;;
6434;SDS011;3250;42.694;23.278;2023-07-29T09:37:47;5.82;;;4.10;;
6434;SDS011;3250;42.694;23.278;2023-07-29T09:40:14;5.43;;;1.92;;
6434;SDS011;3250;42.694;23.278;2023-07-29T09:42:49;5.82;;;3.30;;
6434;SDS011;3250;42.694;23.278;2023-07-29T09:45:21;1.73;;;1.60;;
6434;SDS011;3250;42.694;23.278;2023-07-29T09:47:48;4.53;;;1.77;;
6434;SDS011;3250;42.694;23.278;2023-07-29T09:50:13;3.33;;;1.63;;
6434;SDS011;3250;42.694;23.278;2023-07-29T09:52:39;2.10;;;1.50;;
6434;SDS011;3250;42.694;23.278;2023-07-29T09:55:06;2.00;;;1.80;;
6434;SDS011;3250;42.694;23.278;2023-07-29T09:57:32;3.22;;;2.45;;
6434;SDS011;3250;42.694;23.278;2023-07-29T09:59:57;1.50;;;1.40;;
6434;SDS011;3250;42.694;23.278;2023-07-29T10:02:23;2.08;;;1.50;;
6434;SDS011;3250;42.694;23.278;2023-07-29T10:04:51;3.35;;;1.52;;
6434;SDS011;3250;42.694;23.278;2023-07-29T10:07:17;1.95;;;1.50;;
6434;SDS011;3250;42.694;23.278;2023-07-29T10:09:44;2.75;;;1.33;;
6434;SDS011;3250;42.694;23.278;2023-07-29T10:12:10;2.47;;;1.95;;
6434;SDS011;3250;42.694;23.278;2023-07-29T10:14:36;2.67;;;1.73;;
6434;SDS011;3250;42.694;23.278;2023-07-29T10:17:03;2.75;;;1.42;;
6434;SDS011;3250;42.694;23.278;2023-07-29T10:19:30;1.42;;;1.33;;
6434;SDS011;3250;42.694;23.278;2023-07-29T10:21:56;1.95;;;1.30;;
6434;SDS011;3250;42.694;23.278;2023-07-29T10:24:27;3.08;;;1.58;;
6434;SDS011;3250;42.694;23.278;2023-07-29T10:26:57;1.88;;;1.35;;
6434;SDS011;3250;42.694;23.278;2023-07-29T10:29:24;1.80;;;1.40;;
6434;SDS011;3250;42.694;23.278;2023-07-29T10:31:53;4.32;;;1.50;;
6434;SDS011;3250;42.694;23.278;2023-07-29T10:34:20;1.52;;;1.20;;
6434;SDS011;3250;42.694;23.278;2023-07-29T10:36:47;1.52;;;1.42;;
6434;SDS011;3250;42.694;23.278;2023-07-29T10:39:14;1.90;;;1.35;;
6434;SDS011;3250;42.694;23.278;2023-07-29T10:47:38;1.40;;;1.10;;
6434;SDS011;3250;42.694;23.278;2023-07-29T10:49:58;1.08;;;1.00;;
6434;SDS011;3250;42.694;23.278;2023-07-29T10:54:59;1.50;;;0.90;;
6434;SDS011;3250;42.694;23.278;2023-07-29T10:57:31;3.05;;;1.35;;
6434;SDS011;3250;42.694;23.278;2023-07-29T10:59:57;1.52;;;1.42;;
6434;SDS011;3250;42.694;23.278;2023-07-29T11:02:30;0.98;;;0.90;;
6434;SDS011;3250;42.694;23.278;2023-07-29T11:04:57;1.52;;;1.15;;
6434;SDS011;3250;42.694;23.278;2023-07-29T11:07:24;3.17;;;0.90;;
6434;SDS011;3250;42.694;23.278;2023-07-29T11:09:54;0.80;;;0.80;;
6434;SDS011;3250;42.694;23.278;2023-07-29T11:15:16;1.33;;;1.00;;
6434;SDS011;3250;42.694;23.278;2023-07-29T11:17:49;1.17;;;1.02;;
6434;SDS011;3250;42.694;23.278;2023-07-29T11:20:15;1.15;;;0.90;;
6434;SDS011;3250;42.694;23.278;2023-07-29T11:22:41;5.60;;;1.00;;
6434;SDS011;3250;42.694;23.278;2023-07-29T11:25:07;0.93;;;0.93;;
6434;SDS011;3250;42.694;23.278;2023-07-29T11:27:34;1.45;;;1.05;;
6434;SDS011;3250;42.694;23.278;2023-07-29T11:30:01;2.80;;;1.27;;
6434;SDS011;3250;42.694;23.278;2023-07-29T11:32:31;2.00;;;1.10;;
6434;SDS011;3250;42.694;23.278;2023-07-29T11:35:01;1.33;;;1.20;;
6434;SDS011;3250;42.694;23.278;2023-07-29T11:37:30;1.55;;;1.40;;
6434;SDS011;3250;42.694;23.278;2023-07-29T11:39:57;1.73;;;1.50;;
6434;SDS011;3250;42.694;23.278;2023-07-29T11:42:23;1.85;;;1.20;;
6434;SDS011;3250;42.694;23.278;2023-07-29T11:44:51;1.15;;;1.05;;
6434;SDS011;3250;42.694;23.278;2023-07-29T11:47:17;2.92;;;1.27;;
6434;SDS011;3250;42.694;23.278;2023-07-29T11:49:42;1.50;;;1.27;;
6434;SDS011;3250;42.694;23.278;2023-07-29T11:52:08;9.43;;;1.55;;
6434;SDS011;3250;42.694;23.278;2023-07-29T11:54:38;1.70;;;1.60;;
6434;SDS011;3250;42.694;23.278;2023-07-29T11:57:07;2.75;;;1.60;;
6434;SDS011;3250;42.694;23.278;2023-07-29T11:59:34;1.92;;;1.30;;
6434;SDS011;3250;42.694;23.278;2023-07-29T12:02:01;1.52;;;1.20;;
6434;SDS011;3250;42.694;23.278;2023-07-29T12:04:30;1.88;;;1.10;;
6434;SDS011;3250;42.694;23.278;2023-07-29T12:06:56;2.33;;;1.20;;
6434;SDS011;3250;42.694;23.278;2023-07-29T12:09:22;4.97;;;1.42;;
6434;SDS011;3250;42.694;23.278;2023-07-29T12:11:48;1.42;;;1.33;;
6434;SDS011;3250;42.694;23.278;2023-07-29T12:14:15;19.75;;;10.15;;
6434;SDS011;3250;42.694;23.278;2023-07-29T12:16:42;2.47;;;2.05;;
6434;SDS011;3250;42.694;23.278;2023-07-29T12:19:08;1.88;;;1.38;;
6434;SDS011;3250;42.694;23.278;2023-07-29T12:21:33;4.57;;;1.58;;
6434;SDS011;3250;42.694;23.278;2023-07-29T12:24:00;4.97;;;1.65;;
6434;SDS011;3250;42.694;23.278;2023-07-29T12:26:28;1.60;;;1.50;;
6434;SDS011;3250;42.694;23.278;2023-07-29T12:28:54;1.75;;;1.23;;
6434;SDS011;3250;42.694;23.278;2023-07-29T12:31:21;2.67;;;1.48;;
6434;SDS011;3250;42.694;23.278;2023-07-29T12:33:46;3.65;;;1.60;;
6434;SDS011;3250;42.694;23.278;2023-07-29T12:36:12;2.28;;;1.85;;
6434;SDS011;3250;42.694;23.278;2023-07-29T12:38:37;2.83;;;1.85;;
6434;SDS011;3250;42.694;23.278;2023-07-29T12:41:03;5.03;;;1.38;;
6434;SDS011;3250;42.694;23.278;2023-07-29T12:43:28;1.60;;;1.40;;
6434;SDS011;3250;42.694;23.278;2023-07-29T12:45:54;3.50;;;1.42;;
6434;SDS011;3250;42.694;23.278;2023-07-29T12:48:19;1.98;;;1.10;;
6434;SDS011;3250;42.694;23.278;2023-07-29T12:50:45;1.67;;;1.20;;
6434;SDS011;3250;42.694;23.278;2023-07-29T12:53:11;5.40;;;1.27;;
6434;SDS011;3250;42.694;23.278;2023-07-29T12:55:36;3.63;;;1.70;;
6434;SDS011;3250;42.694;23.278;2023-07-29T12:58:02;3.05;;;1.73;;
6434;SDS011;3250;42.694;23.278;2023-07-29T13:00:28;1.35;;;1.25;;
6434;SDS011;3250;42.694;23.278;2023-07-29T13:02:54;8.88;;;1.90;;
6434;SDS011;3250;42.694;23.278;2023-07-29T13:05:19;4.65;;;1.40;;
6434;SDS011;3250;42.694;23.278;2023-07-29T13:07:45;1.88;;;1.67;;
6434;SDS011;3250;42.694;23.278;2023-07-29T13:10:11;2.08;;;1.27;;
6434;SDS011;3250;42.694;23.278;2023-07-29T13:12:37;1.98;;;1.40;;
6434;SDS011;3250;42.694;23.278;2023-07-29T13:15:03;1.48;;;1.38;;
6434;SDS011;3250;42.694;23.278;2023-07-29T13:17:29;9.95;;;2.15;;
6434;SDS011;3250;42.694;23.278;2023-07-29T13:19:54;1.75;;;1.20;;
6434;SDS011;3250;42.694;23.278;2023-07-29T13:22:20;2.15;;;1.48;;
6434;SDS011;3250;42.694;23.278;2023-07-29T13:24:45;1.40;;;1.30;;
6434;SDS011;3250;42.694;23.278;2023-07-29T13:27:11;4.63;;;1.90;;
6434;SDS011;3250;42.694;23.278;2023-07-29T13:29:36;1.45;;;1.33;;
6434;SDS011;3250;42.694;23.278;2023-07-29T13:32:02;1.40;;;1.30;;
6434;SDS011;3250;42.694;23.278;2023-07-29T13:34:27;2.50;;;1.60;;
6434;SDS011;3250;42.694;23.278;2023-07-29T13:36:53;3.67;;;2.00;;
6434;SDS011;3250;42.694;23.278;2023-07-29T13:39:18;6.75;;;2.30;;
6434;SDS011;3250;42.694;23.278;2023-07-29T13:41:44;3.28;;;2.20;;
6434;SDS011;3250;42.694;23.278;2023-07-29T13:44:09;5.38;;;3.10;;
6434;SDS011;3250;42.694;23.278;2023-07-29T13:46:35;4.70;;;2.75;;
6434;SDS011;3250;42.694;23.278;2023-07-29T13:49:00;3.67;;;2.10;;
6434;SDS011;3250;42.694;23.278;2023-07-29T13:51:26;4.47;;;1.95;;
6434;SDS011;3250;42.694;23.278;2023-07-29T13:53:51;4.38;;;1.70;;
6434;SDS011;3250;42.694;23.278;2023-07-29T13:56:17;6.65;;;1.80;;
6434;SDS011;3250;42.694;23.278;2023-07-29T13:58:42;2.83;;;1.80;;
6434;SDS011;3250;42.694;23.278;2023-07-29T14:01:07;5.15;;;1.90;;
6434;SDS011;3250;42.694;23.278;2023-07-29T14:03:33;3.35;;;1.90;;
6434;SDS011;3250;42.694;23.278;2023-07-29T14:05:58;2.22;;;1.83;;
6434;SDS011;3250;42.694;23.278;2023-07-29T14:08:24;2.97;;;2.05;;
6434;SDS011;3250;42.694;23.278;2023-07-29T14:10:49;1.75;;;1.50;;
6434;SDS011;3250;42.694;23.278;2023-07-29T14:13:15;5.90;;;1.60;;
6434;SDS011;3250;42.694;23.278;2023-07-29T14:15:40;2.05;;;1.52;;
6434;SDS011;3250;42.694;23.278;2023-07-29T14:18:06;2.10;;;1.70;;
6434;SDS011;3250;42.694;23.278;2023-07-29T14:20:32;1.40;;;1.30;;
6434;SDS011;3250;42.694;23.278;2023-07-29T14:22:58;2.10;;;1.65;;
6434;SDS011;3250;42.694;23.278;2023-07-29T14:25:23;3.95;;;1.58;;
6434;SDS011;3250;42.694;23.278;2023-07-29T14:27:49;3.00;;;1.60;;
6434;SDS011;3250;42.694;23.278;2023-07-29T14:30:14;4.40;;;1.90;;
6434;SDS011;3250;42.694;23.278;2023-07-29T14:32:40;2.10;;;1.98;;
6434;SDS011;3250;42.694;23.278;2023-07-29T14:35:05;2.58;;;1.52;;
6434;SDS011;3250;42.694;23.278;2023-07-29T14:37:32;4.07;;;1.58;;
6434;SDS011;3250;42.694;23.278;2023-07-29T14:39:58;1.60;;;1.42;;
6434;SDS011;3250;42.694;23.278;2023-07-29T14:42:24;3.25;;;1.50;;
6434;SDS011;3250;42.694;23.278;2023-07-29T14:44:49;2.78;;;1.40;;
6434;SDS011;3250;42.694;23.278;2023-07-29T14:47:15;3.33;;;1.38;;
6434;SDS011;3250;42.694;23.278;2023-07-29T14:49:40;2.60;;;1.40;;
6434;SDS011;3250;42.694;23.278;2023-07-29T14:52:06;3.15;;;1.90;;
6434;SDS011;3250;42.694;23.278;2023-07-29T14:54:31;2.10;;;1.65;;
6434;SDS011;3250;42.694;23.278;2023-07-29T14:56:57;1.40;;;1.30;;
6434;SDS011;3250;42.694;23.278;2023-07-29T14:59:22;1.73;;;1.63;;
6434;SDS011;3250;42.694;23.278;2023-07-29T15:01:48;1.52;;;1.40;;
6434;SDS011;3250;42.694;23.278;2023-07-29T15:04:13;1.55;;;1.45;;
6434;SDS011;3250;42.694;23.278;2023-07-29T15:06:38;2.88;;;1.48;;